createdAt,value
2024-02-19T00:00:26.936Z,28.43
2024-02-19T00:01:50.475Z,28.38
2024-02-19T00:03:13.600Z,28.32
2024-02-19T00:04:38.654Z,28.57
2024-02-19T00:06:01.337Z,29.07
2024-02-19T00:07:24.018Z,28.85
2024-02-19T00:08:47.150Z,28.35
2024-02-19T00:10:10.489Z,29.00
2024-02-19T00:11:33.561Z,29.73
2024-02-19T00:12:57.054Z,29.60
2024-02-19T00:14:20.382Z,29.80
2024-02-19T00:15:44.030Z,29.93
2024-02-19T00:17:06.550Z,29.53
2024-02-19T00:18:28.860Z,30.43
2024-02-19T00:19:50.053Z,31.12
2024-02-19T00:21:21.445Z,33.92
2024-02-19T00:22:42.523Z,32.10
2024-02-19T00:24:05.701Z,29.88
2024-02-19T00:25:27.996Z,29.10
2024-02-19T00:26:52.984Z,28.70
2024-02-19T00:28:15.813Z,27.18
2024-02-19T00:29:39.314Z,29.20
2024-02-19T00:31:01.337Z,29.35
2024-02-19T00:32:23.273Z,31.37
2024-02-19T00:33:46.573Z,30.33
2024-02-19T00:35:08.943Z,28.65
2024-02-19T00:36:30.559Z,28.63
2024-02-19T00:37:55.153Z,27.77
2024-02-19T00:39:20.609Z,26.65
2024-02-19T00:40:43.470Z,26.10
2024-02-19T00:42:04.976Z,26.55
2024-02-19T00:43:28.142Z,26.13
2024-02-19T00:44:50.880Z,26.03
2024-02-19T00:46:13.172Z,27.35
2024-02-19T00:47:35.128Z,26.48
2024-02-19T00:48:57.557Z,26.67
2024-02-19T00:50:20.695Z,26.87
2024-02-19T00:51:44.450Z,26.22
2024-02-19T00:53:06.850Z,26.93
2024-02-19T00:54:29.437Z,27.22
2024-02-19T00:55:59.214Z,28.12
2024-02-19T00:57:29.085Z,30.08
2024-02-19T00:58:52.288Z,30.82
2024-02-19T01:00:15.464Z,30.82
2024-02-19T01:01:36.927Z,29.95
2024-02-19T01:03:00.170Z,31.00
2024-02-19T01:04:23.076Z,30.25
2024-02-19T01:05:45.189Z,30.57
2024-02-19T01:07:07.962Z,30.13
2024-02-19T01:08:59.702Z,30.35
2024-02-19T01:10:30.141Z,30.70
2024-02-19T01:12:56.989Z,31.45
2024-02-19T01:15:09.381Z,31.40
2024-02-19T01:16:50.180Z,29.95
2024-02-19T01:18:16.510Z,31.58
2024-02-19T01:23:10.561Z,31.05
2024-02-19T01:24:33.210Z,32.52
2024-02-19T01:25:56.663Z,30.77
2024-02-19T01:27:19.080Z,31.15
2024-02-19T01:28:42.309Z,31.37
2024-02-19T01:30:05.848Z,32.23
2024-02-19T01:31:38.706Z,31.98
2024-02-19T01:33:12.452Z,31.32
2024-02-19T01:34:34.717Z,30.53
2024-02-19T01:35:57.831Z,32.00
2024-02-19T01:37:29.605Z,31.97
2024-02-19T01:38:56.313Z,32.22
2024-02-19T01:40:20.945Z,31.97
2024-02-19T01:41:43.914Z,31.70
2024-02-19T01:43:15.174Z,32.47
2024-02-19T01:44:41.156Z,32.42
2024-02-19T01:46:04.744Z,31.12
2024-02-19T01:47:27.846Z,31.43
2024-02-19T01:48:50.524Z,32.30
2024-02-19T01:50:28.235Z,31.80
2024-02-19T01:51:57.515Z,31.77
2024-02-19T01:53:35.024Z,31.75
2024-02-19T01:55:35.552Z,32.42
2024-02-19T01:56:58.984Z,33.85
2024-02-19T01:58:21.184Z,32.42
2024-02-19T01:59:54.016Z,32.27
2024-02-19T02:01:21.233Z,32.33
2024-02-19T02:02:43.270Z,32.05
2024-02-19T02:04:08.354Z,32.10
2024-02-19T02:05:31.552Z,32.15
2024-02-19T02:06:55.014Z,30.67
2024-02-19T02:08:18.310Z,31.73
2024-02-19T02:09:41.750Z,32.07
2024-02-19T02:11:05.844Z,31.97
2024-02-19T02:12:29.145Z,32.58
2024-02-19T02:15:55.503Z,32.17
2024-02-19T02:17:16.640Z,31.93
2024-02-19T02:18:40.044Z,31.60
2024-02-19T02:20:05.766Z,31.88
2024-02-19T02:21:52.228Z,31.57
2024-02-19T02:24:07.382Z,32.68
2024-02-19T02:26:45.641Z,32.02
2024-02-19T02:28:23.921Z,32.08
2024-02-19T02:29:49.416Z,33.33
2024-02-19T02:31:18.153Z,33.97
2024-02-19T02:32:41.262Z,33.02
2024-02-19T02:34:38.499Z,32.08
2024-02-19T02:36:11.478Z,34.42
2024-02-19T02:37:52.751Z,31.80
2024-02-19T02:39:18.007Z,33.28
2024-02-19T02:41:22.279Z,33.62
2024-02-19T02:42:45.769Z,33.20
2024-02-19T02:44:09.429Z,33.15
2024-02-19T02:46:29.970Z,33.12
2024-02-19T02:47:50.511Z,34.67
2024-02-19T02:49:13.260Z,34.68
2024-02-19T02:50:38.175Z,35.30
2024-02-19T02:52:12.101Z,34.65
2024-02-19T02:53:41.152Z,35.80
2024-02-19T02:55:17.495Z,36.63
2024-02-19T02:57:03.297Z,34.62
2024-02-19T02:58:28.231Z,34.88
2024-02-19T02:59:55.571Z,33.82
2024-02-19T03:02:17.795Z,33.27
2024-02-19T03:03:40.562Z,36.20
2024-02-19T03:05:05.534Z,36.78
2024-02-19T03:06:27.483Z,36.85
2024-02-19T03:08:04.273Z,37.82
2024-02-19T03:09:33.114Z,40.33
2024-02-19T03:11:13.814Z,38.07
2024-02-19T03:12:46.222Z,36.93
2024-02-19T03:14:12.197Z,36.88
2024-02-19T03:15:34.770Z,36.68
2024-02-19T03:17:12.419Z,37.87
2024-02-19T03:18:44.994Z,39.55
2024-02-19T03:20:18.635Z,42.10
2024-02-19T03:22:40.763Z,49.25
2024-02-19T03:24:02.221Z,46.95
2024-02-19T03:26:01.745Z,47.37
2024-02-19T03:30:42.278Z,45.38
2024-02-19T03:32:06.638Z,57.50
2024-02-19T03:36:14.585Z,55.27
2024-02-19T03:37:48.699Z,52.32
2024-02-19T03:39:46.460Z,49.00
2024-02-19T03:41:16.495Z,46.90
2024-02-19T03:43:01.376Z,44.08
2024-02-19T03:46:58.167Z,46.07
2024-02-19T03:48:46.497Z,45.85
2024-02-19T03:50:34.352Z,50.27
2024-02-19T03:52:00.778Z,53.07
2024-02-19T03:53:45.946Z,49.77
2024-02-19T03:55:16.320Z,48.72
2024-02-19T03:57:12.272Z,50.05
2024-02-19T03:58:39.850Z,48.22
2024-02-19T04:00:06.431Z,47.63
2024-02-19T04:01:35.525Z,45.82
2024-02-19T04:03:01.926Z,46.07
2024-02-19T04:04:23.833Z,44.03
2024-02-19T04:05:46.380Z,43.30
2024-02-19T04:07:08.577Z,43.63
2024-02-19T04:08:46.703Z,41.87
2024-02-19T04:10:19.620Z,43.62
2024-02-19T04:11:41.891Z,42.93
2024-02-19T04:13:47.369Z,42.33
2024-02-19T04:15:11.330Z,42.45
2024-02-19T04:16:37.935Z,40.83
2024-02-19T04:18:01.878Z,43.32
2024-02-19T04:19:27.730Z,41.32
2024-02-19T04:20:50.358Z,41.12
2024-02-19T04:22:12.973Z,44.03
2024-02-19T04:23:34.898Z,43.40
2024-02-19T04:24:57.229Z,44.22
2024-02-19T04:26:27.198Z,43.23
2024-02-19T04:27:51.372Z,40.98
2024-02-19T04:29:14.084Z,41.30
2024-02-19T04:32:22.672Z,39.22
2024-02-19T04:34:12.345Z,39.40
2024-02-19T04:35:51.008Z,39.45
2024-02-19T04:37:35.674Z,40.80
2024-02-19T04:38:57.084Z,41.82
2024-02-19T04:40:35.947Z,42.35
2024-02-19T04:42:41.222Z,42.97
2024-02-19T04:47:18.536Z,63.90
2024-02-19T04:49:04.703Z,62.02
2024-02-19T04:50:56.174Z,56.82
2024-02-19T04:52:24.095Z,54.17
2024-02-19T04:53:49.500Z,54.22
2024-02-19T04:55:14.967Z,50.42
2024-02-19T04:56:46.441Z,51.30
2024-02-19T04:58:10.988Z,53.18
2024-02-19T05:00:05.563Z,54.43
2024-02-19T05:01:59.343Z,53.00
2024-02-19T05:03:33.789Z,54.92
2024-02-19T05:05:02.475Z,51.70
2024-02-19T05:06:36.307Z,48.93
2024-02-19T05:08:38.488Z,48.35
2024-02-19T05:11:03.470Z,47.38
2024-02-19T05:12:26.027Z,45.10
2024-02-19T05:13:49.260Z,43.27
2024-02-19T05:15:26.102Z,41.77
2024-02-19T05:17:26.704Z,47.68
2024-02-19T05:18:49.201Z,76.98
2024-02-19T05:20:17.313Z,69.17
2024-02-19T05:22:02.660Z,67.12
2024-02-19T05:23:31.394Z,63.43
2024-02-19T05:25:00.776Z,62.03
2024-02-19T05:26:36.297Z,64.78
2024-02-19T05:28:24.828Z,74.08
2024-02-19T05:30:22.769Z,81.77
2024-02-19T05:31:57.955Z,67.75
2024-02-19T05:33:43.536Z,61.67
2024-02-19T05:35:47.505Z,50.40
2024-02-19T05:37:36.244Z,44.77
2024-02-19T05:39:19.392Z,41.92
2024-02-19T05:40:42.184Z,40.82
2024-02-19T05:42:04.959Z,44.03
2024-02-19T05:44:16.467Z,43.23
2024-02-19T05:46:11.305Z,41.20
2024-02-19T05:47:48.681Z,38.42
2024-02-19T05:54:32.515Z,38.40
2024-02-19T05:55:54.510Z,38.25
2024-02-19T05:57:20.421Z,36.68
2024-02-19T06:00:54.898Z,35.67
2024-02-19T06:02:23.886Z,34.92
2024-02-19T06:03:46.655Z,34.08
2024-02-19T06:05:09.962Z,33.93
2024-02-19T06:06:34.870Z,33.70
2024-02-19T06:07:58.677Z,32.95
2024-02-19T06:09:23.159Z,33.78
2024-02-19T06:10:59.597Z,33.88
2024-02-19T06:12:22.977Z,35.97
2024-02-19T06:13:50.254Z,36.67
2024-02-19T06:15:13.207Z,49.20
2024-02-19T06:16:40.893Z,57.27
2024-02-19T06:18:41.492Z,55.12
2024-02-19T06:20:06.039Z,50.25
2024-02-19T06:22:14.665Z,50.62
2024-02-19T06:28:11.521Z,40.03
2024-02-19T06:29:57.744Z,39.90
2024-02-19T06:31:19.809Z,41.12
2024-02-19T06:33:19.812Z,38.23
2024-02-19T06:34:45.139Z,38.40
2024-02-19T06:36:14.404Z,39.83
2024-02-19T06:38:38.851Z,38.30
2024-02-19T06:40:09.081Z,39.62
2024-02-19T06:41:33.523Z,41.02
2024-02-19T06:42:56.923Z,41.35
2024-02-19T06:44:24.049Z,41.98
2024-02-19T06:45:47.636Z,41.53
2024-02-19T06:47:10.852Z,39.88
2024-02-19T06:48:32.780Z,40.75
2024-02-19T06:50:38.291Z,43.27
2024-02-19T06:52:09.741Z,42.85
2024-02-19T06:53:34.086Z,42.42
2024-02-19T06:54:56.905Z,43.22
2024-02-19T06:56:19.886Z,41.47
2024-02-19T06:57:42.960Z,40.50
2024-02-19T06:59:05.507Z,41.48
2024-02-19T07:00:29.109Z,42.18
2024-02-19T07:01:52.182Z,42.92
2024-02-19T07:03:15.357Z,41.47
2024-02-19T07:04:39.113Z,41.68
2024-02-19T07:06:02.601Z,40.78
2024-02-19T07:07:26.285Z,40.85
2024-02-19T07:08:48.404Z,41.05
2024-02-19T07:10:12.182Z,38.98
2024-02-19T07:11:39.414Z,38.45
2024-02-19T07:13:00.496Z,41.77
2024-02-19T07:14:22.405Z,40.42
2024-02-19T07:15:46.100Z,41.90
2024-02-19T07:17:08.922Z,41.15
2024-02-19T07:18:33.239Z,39.53
2024-02-19T07:19:56.157Z,38.48
2024-02-19T07:21:21.823Z,38.70
2024-02-19T07:22:47.301Z,39.25
2024-02-19T07:24:10.543Z,37.95
2024-02-19T07:25:33.553Z,37.37
2024-02-19T07:26:56.132Z,34.83
2024-02-19T07:28:21.086Z,34.45
2024-02-19T07:29:59.574Z,33.38
2024-02-19T07:31:49.140Z,34.10
2024-02-19T07:33:28.295Z,35.53
2024-02-19T07:35:14.201Z,34.08
2024-02-19T07:36:56.499Z,34.17
2024-02-19T07:38:21.752Z,34.20
2024-02-19T07:39:50.901Z,33.48
2024-02-19T07:41:23.496Z,33.90
2024-02-19T07:42:47.799Z,32.88
2024-02-19T07:44:29.605Z,33.48
2024-02-19T07:45:54.940Z,34.48
2024-02-19T07:47:25.073Z,36.60
2024-02-19T07:49:09.728Z,36.50
2024-02-19T07:50:46.795Z,36.12
2024-02-19T07:52:17.955Z,35.52
2024-02-19T07:54:07.596Z,35.77
2024-02-19T07:56:20.333Z,36.20
2024-02-19T07:57:56.536Z,36.03
2024-02-19T07:59:47.658Z,38.02
2024-02-19T08:01:34.155Z,41.88
2024-02-19T08:03:40.822Z,46.98
2024-02-19T08:05:55.950Z,54.25
2024-02-19T08:07:21.810Z,54.70
2024-02-19T08:08:56.792Z,43.77
2024-02-19T08:15:15.033Z,39.33
2024-02-19T08:16:47.550Z,42.87
2024-02-19T08:19:26.896Z,38.10
2024-02-19T08:21:07.945Z,35.63
2024-02-19T08:25:00.961Z,40.20
2024-02-19T08:26:51.592Z,36.65
2024-02-19T08:28:41.602Z,33.17
2024-02-19T08:30:22.504Z,32.28
2024-02-19T08:31:54.695Z,30.98
2024-02-19T08:33:47.606Z,32.50
2024-02-19T08:35:11.246Z,34.78
2024-02-19T08:36:36.209Z,34.95
2024-02-19T08:38:01.486Z,32.62
2024-02-19T08:39:24.213Z,35.70
2024-02-19T08:40:50.729Z,60.22
2024-02-19T08:43:00.650Z,37.52
2024-02-19T08:44:29.241Z,27.33
2024-02-19T08:46:00.582Z,26.87
2024-02-19T08:47:25.074Z,26.92
2024-02-19T08:48:48.671Z,25.65
2024-02-19T08:50:53.935Z,25.55
2024-02-19T08:52:16.518Z,25.77
2024-02-19T08:53:39.820Z,25.70
2024-02-19T08:55:02.386Z,25.63
2024-02-19T08:56:25.368Z,24.80
2024-02-19T08:57:48.022Z,24.70
2024-02-19T08:59:13.853Z,24.67
2024-02-19T09:00:38.151Z,24.95
2024-02-19T09:02:00.758Z,24.88
2024-02-19T09:03:22.145Z,25.60
2024-02-19T09:04:49.548Z,25.88
2024-02-19T09:06:12.408Z,27.23
2024-02-19T09:07:36.792Z,27.40
2024-02-19T09:09:01.565Z,28.38
2024-02-19T09:10:24.428Z,28.25
2024-02-19T09:11:47.925Z,27.93
2024-02-19T09:13:11.881Z,26.17
2024-02-19T09:14:34.199Z,25.72
2024-02-19T09:15:57.175Z,25.85
2024-02-19T09:17:20.440Z,25.55
2024-02-19T09:18:49.709Z,25.88
2024-02-19T09:20:13.037Z,24.45
2024-02-19T09:21:35.254Z,23.58
2024-02-19T09:22:58.025Z,24.83
2024-02-19T09:24:20.943Z,25.85
2024-02-19T09:25:47.747Z,25.42
2024-02-19T09:27:09.496Z,24.83
2024-02-19T09:28:33.068Z,24.28
2024-02-19T09:31:07.915Z,23.47
2024-02-19T09:32:34.283Z,25.08
2024-02-19T09:33:59.153Z,26.30
2024-02-19T09:36:52.865Z,25.63
2024-02-19T09:38:23.856Z,22.72
2024-02-19T09:40:17.630Z,22.32
2024-02-19T09:42:37.073Z,23.02
2024-02-19T09:44:02.587Z,23.53
2024-02-19T09:45:27.736Z,24.62
2024-02-19T09:46:53.274Z,24.52
2024-02-19T09:48:21.429Z,22.52
2024-02-19T09:49:44.616Z,22.03
2024-02-19T09:51:37.184Z,23.33
2024-02-19T09:53:12.902Z,23.92
2024-02-19T09:54:35.729Z,23.40
2024-02-19T09:55:59.990Z,22.08
2024-02-19T09:57:24.750Z,22.95
2024-02-19T09:58:48.810Z,21.17
2024-02-19T10:00:13.097Z,21.78
2024-02-19T10:01:35.784Z,22.15
2024-02-19T10:02:59.333Z,20.67
2024-02-19T10:04:23.913Z,20.30
2024-02-19T10:05:49.098Z,21.48
2024-02-19T10:07:14.849Z,20.62
2024-02-19T10:08:38.225Z,21.80
2024-02-19T10:10:05.551Z,21.00
2024-02-19T10:11:35.340Z,18.97
2024-02-19T10:12:57.994Z,19.30
2024-02-19T10:14:20.044Z,19.73
2024-02-19T10:15:41.809Z,20.45
2024-02-19T10:17:05.108Z,21.42
2024-02-19T10:18:28.335Z,21.28
2024-02-19T10:20:07.558Z,22.68
2024-02-19T10:21:31.899Z,20.78
2024-02-19T10:22:55.229Z,22.00
2024-02-19T10:24:20.990Z,21.18
2024-02-19T10:25:43.739Z,21.77
2024-02-19T10:27:06.916Z,21.93
2024-02-19T10:28:33.556Z,23.40
2024-02-19T10:29:56.175Z,23.72
2024-02-19T10:31:18.322Z,23.35
2024-02-19T10:32:43.215Z,23.48
2024-02-19T10:34:06.765Z,23.78
2024-02-19T10:35:30.916Z,22.92
2024-02-19T10:36:53.061Z,21.85
2024-02-19T10:38:18.318Z,24.88
2024-02-19T10:39:41.497Z,23.43
2024-02-19T10:41:02.296Z,22.90
2024-02-19T10:42:25.532Z,23.13
2024-02-19T10:43:47.811Z,22.65
2024-02-19T10:45:12.922Z,22.37
2024-02-19T10:46:36.681Z,24.38
2024-02-19T10:48:01.868Z,24.32
2024-02-19T10:49:26.334Z,26.15
2024-02-19T10:50:52.341Z,24.37
2024-02-19T10:52:14.065Z,23.92
2024-02-19T10:53:37.446Z,25.02
2024-02-19T10:55:09.683Z,26.65
2024-02-19T10:56:40.469Z,25.82
2024-02-19T10:58:05.325Z,25.83
2024-02-19T10:59:31.335Z,24.35
2024-02-19T11:00:56.375Z,22.17
2024-02-19T11:02:22.859Z,22.65
2024-02-19T11:03:48.006Z,23.83
2024-02-19T11:05:13.609Z,20.42
2024-02-19T11:06:42.115Z,21.45
2024-02-19T11:08:04.791Z,19.77
2024-02-19T11:09:37.503Z,20.87
2024-02-19T11:11:00.686Z,20.63
2024-02-19T11:12:24.422Z,20.43
2024-02-19T11:13:49.535Z,21.45
2024-02-19T11:15:19.156Z,23.73
2024-02-19T11:17:01.873Z,23.43
2024-02-19T11:18:33.661Z,22.53
2024-02-19T11:19:56.533Z,23.60
2024-02-19T11:21:22.139Z,20.45
2024-02-19T11:22:45.155Z,21.25
2024-02-19T11:24:12.572Z,19.78
2024-02-19T11:25:46.535Z,20.85
2024-02-19T11:27:10.588Z,22.07
2024-02-19T11:28:38.554Z,21.00
2024-02-19T11:30:03.036Z,21.55
2024-02-19T11:31:36.974Z,21.77
2024-02-19T11:33:14.279Z,20.43
2024-02-19T11:34:37.593Z,19.18
2024-02-19T11:36:04.078Z,20.85
2024-02-19T11:37:29.051Z,21.07
2024-02-19T11:38:52.439Z,19.13
2024-02-19T11:40:19.233Z,18.33
2024-02-19T11:42:05.927Z,18.42
2024-02-19T11:43:31.459Z,21.28
2024-02-19T11:44:58.046Z,22.55
2024-02-19T11:46:22.673Z,19.57
2024-02-19T11:47:46.046Z,18.62
2024-02-19T11:49:10.342Z,17.90
2024-02-19T11:50:33.488Z,18.12
2024-02-19T11:52:04.390Z,20.07
2024-02-19T11:53:31.664Z,21.10
2024-02-19T11:55:03.129Z,23.20
2024-02-19T11:56:25.680Z,22.20
2024-02-19T11:57:51.313Z,21.68
2024-02-19T11:59:16.249Z,22.43
2024-02-19T12:00:41.283Z,21.93
2024-02-19T12:02:07.411Z,22.30
2024-02-19T12:03:31.744Z,20.15
2024-02-19T12:04:55.304Z,20.62
2024-02-19T12:06:18.697Z,20.20
2024-02-19T12:07:41.244Z,21.07
2024-02-19T12:09:04.108Z,19.67
2024-02-19T12:10:29.723Z,17.83
2024-02-19T12:11:52.047Z,18.20
2024-02-19T12:13:15.597Z,16.98
2024-02-19T12:14:39.467Z,17.30
2024-02-19T12:16:03.582Z,16.93
2024-02-19T12:17:28.155Z,17.67
2024-02-19T12:18:53.196Z,17.13
2024-02-19T12:20:16.119Z,17.55
2024-02-19T12:21:38.147Z,18.00
2024-02-19T12:23:01.575Z,18.90
2024-02-19T12:24:26.046Z,20.20
2024-02-19T12:25:50.420Z,21.80
2024-02-19T12:27:12.888Z,21.45
2024-02-19T12:28:35.183Z,21.97
2024-02-19T12:29:58.458Z,19.10
2024-02-19T12:31:21.994Z,19.03
2024-02-19T12:32:48.065Z,20.32
2024-02-19T12:34:10.743Z,17.87
2024-02-19T12:35:34.156Z,17.65
2024-02-19T12:36:56.594Z,18.77
2024-02-19T12:38:18.604Z,17.50
2024-02-19T12:39:51.086Z,18.02
2024-02-19T12:41:19.281Z,18.97
2024-02-19T12:42:43.337Z,20.45
2024-02-19T12:44:05.945Z,19.60
2024-02-19T12:45:28.844Z,20.07
2024-02-19T12:46:52.805Z,20.92
2024-02-19T12:48:16.635Z,19.72
2024-02-19T12:49:40.814Z,19.58
2024-02-19T12:51:08.301Z,20.02
2024-02-19T12:52:31.739Z,21.57
2024-02-19T12:53:56.541Z,23.02
2024-02-19T12:55:19.890Z,21.40
2024-02-19T12:56:44.190Z,22.47
2024-02-19T12:58:07.109Z,22.00
2024-02-19T12:59:31.020Z,25.12
2024-02-19T13:00:54.505Z,21.07
2024-02-19T13:02:18.439Z,19.45
2024-02-19T13:03:42.416Z,19.10
2024-02-19T13:05:07.857Z,19.78
2024-02-19T13:06:30.450Z,19.88
2024-02-19T13:07:56.335Z,18.07
2024-02-19T13:09:20.620Z,17.87
2024-02-19T13:10:46.215Z,18.05
2024-02-19T13:12:11.377Z,17.68
2024-02-19T13:13:34.770Z,17.87
2024-02-19T13:15:04.224Z,20.67
2024-02-19T13:16:58.427Z,19.38
2024-02-19T13:18:42.168Z,18.72
2024-02-19T13:22:42.776Z,18.87
2024-02-19T13:24:19.681Z,19.07
2024-02-19T13:25:46.224Z,19.85
2024-02-19T13:27:17.412Z,19.42
2024-02-19T13:28:39.545Z,19.42
2024-02-19T13:30:03.272Z,19.75
2024-02-19T13:31:38.373Z,20.40
2024-02-19T13:33:09.507Z,19.35
2024-02-19T13:34:35.265Z,19.23
2024-02-19T13:36:06.733Z,18.83
2024-02-19T13:37:30.535Z,19.15
2024-02-19T13:38:54.379Z,19.38
2024-02-19T13:40:19.197Z,19.30
2024-02-19T13:41:44.354Z,23.93
2024-02-19T13:43:06.974Z,34.90
2024-02-19T13:44:31.547Z,24.87
2024-02-19T13:46:01.686Z,27.00
2024-02-19T13:47:25.084Z,24.90
2024-02-19T13:49:02.422Z,22.45
2024-02-19T13:50:25.765Z,20.30
2024-02-19T13:51:48.685Z,19.87
2024-02-19T13:53:16.990Z,20.53
2024-02-19T13:54:40.554Z,20.72
2024-02-19T13:56:05.574Z,20.63
2024-02-19T13:57:27.078Z,21.22
2024-02-19T13:58:50.837Z,20.85
2024-02-19T14:00:14.316Z,20.68
2024-02-19T14:01:40.363Z,20.53
2024-02-19T14:03:04.959Z,21.02
2024-02-19T14:04:27.605Z,20.45
2024-02-19T14:05:51.878Z,20.30
2024-02-19T14:07:16.435Z,20.13
2024-02-19T14:08:41.417Z,20.38
2024-02-19T14:10:07.220Z,20.77
2024-02-19T14:11:41.277Z,19.97
2024-02-19T14:13:04.985Z,20.52
2024-02-19T14:14:28.317Z,20.58
2024-02-19T14:15:50.109Z,20.58
2024-02-19T14:17:14.801Z,20.45
2024-02-19T14:18:38.322Z,20.57
2024-02-19T14:20:02.132Z,21.93
2024-02-19T14:21:49.138Z,21.30
2024-02-19T14:23:13.851Z,21.50
2024-02-19T14:24:43.013Z,21.55
2024-02-19T14:26:25.674Z,20.42
2024-02-19T14:27:51.015Z,20.63
2024-02-19T14:29:20.783Z,20.70
2024-02-19T14:30:44.220Z,19.93
2024-02-19T14:32:22.086Z,21.05
2024-02-19T14:33:46.900Z,21.60
2024-02-19T14:35:12.548Z,20.12
2024-02-19T14:36:40.793Z,20.30
2024-02-19T14:38:18.980Z,19.80
2024-02-19T14:39:49.767Z,20.40
2024-02-19T14:41:17.651Z,20.08
2024-02-19T14:42:41.547Z,19.68
2024-02-19T14:44:07.409Z,19.72
2024-02-19T14:45:33.479Z,19.92
2024-02-19T14:47:02.315Z,19.22
2024-02-19T14:48:29.332Z,19.63
2024-02-19T14:49:52.655Z,22.05
2024-02-19T14:51:23.390Z,23.45
2024-02-19T14:52:47.536Z,27.07
2024-02-19T14:54:12.640Z,26.90
2024-02-19T14:55:36.562Z,23.35
2024-02-19T14:57:01.975Z,21.45
2024-02-19T14:58:30.446Z,20.23
2024-02-19T15:00:05.139Z,19.50
2024-02-19T15:01:39.900Z,17.60
2024-02-19T15:03:03.030Z,19.50
2024-02-19T15:04:57.170Z,18.42
2024-02-19T15:06:20.215Z,18.57
2024-02-19T15:07:46.639Z,18.80
2024-02-19T15:09:25.025Z,17.48
2024-02-19T15:10:54.500Z,17.13
2024-02-19T15:12:19.926Z,16.68
2024-02-19T15:14:08.918Z,17.70
2024-02-19T15:15:47.221Z,19.03
2024-02-19T15:17:18.976Z,21.52
2024-02-19T15:18:42.081Z,24.05
2024-02-19T15:20:05.359Z,25.20
2024-02-19T15:21:28.167Z,29.83
2024-02-19T15:23:15.053Z,34.12
2024-02-19T15:24:39.780Z,42.65
2024-02-19T15:26:24.162Z,44.80
2024-02-19T15:27:56.352Z,43.40
2024-02-19T15:29:21.997Z,50.23
2024-02-19T15:31:04.648Z,55.02
2024-02-19T15:32:28.575Z,51.00
2024-02-19T15:34:36.888Z,42.52
2024-02-19T15:38:05.902Z,34.45
2024-02-19T15:39:26.318Z,33.18
2024-02-19T15:40:53.725Z,26.92
2024-02-19T15:42:18.970Z,28.43
2024-02-19T15:43:43.028Z,24.62
2024-02-19T15:45:14.937Z,26.38
2024-02-19T15:46:41.518Z,28.57
2024-02-19T15:48:02.320Z,29.62
2024-02-19T15:49:26.430Z,31.33
2024-02-19T15:50:55.534Z,28.90
2024-02-19T15:52:19.662Z,31.95
2024-02-19T15:53:47.789Z,30.75
2024-02-19T15:55:22.954Z,35.68
2024-02-19T15:56:46.690Z,29.47
2024-02-19T15:58:10.316Z,25.77
2024-02-19T15:59:32.563Z,25.78
2024-02-19T16:00:55.219Z,24.60
2024-02-19T16:02:20.073Z,22.92
2024-02-19T16:03:43.611Z,22.18
2024-02-19T16:05:08.429Z,20.45
2024-02-19T16:06:33.298Z,21.17
2024-02-19T16:07:59.341Z,19.80
2024-02-19T16:09:24.339Z,19.60
2024-02-19T16:11:10.806Z,20.03
2024-02-19T16:12:37.766Z,19.13
2024-02-19T16:14:01.753Z,19.08
2024-02-19T16:15:28.185Z,20.40
2024-02-19T16:17:06.768Z,22.37
2024-02-19T16:18:27.835Z,33.22
2024-02-19T16:19:55.186Z,35.60
2024-02-19T16:21:18.278Z,44.07
2024-02-19T16:22:58.968Z,46.08
2024-02-19T16:24:29.992Z,42.20
2024-02-19T16:27:58.741Z,66.92
2024-02-19T16:29:28.246Z,101.15
2024-02-19T16:30:56.995Z,164.80
2024-02-19T16:32:23.006Z,117.83
2024-02-19T16:34:48.992Z,139.50
2024-02-19T16:36:26.353Z,346.30
2024-02-19T16:37:50.278Z,302.72
2024-02-19T16:39:13.589Z,188.80
2024-02-19T16:40:39.396Z,220.75
2024-02-19T16:42:06.372Z,196.92
2024-02-19T16:43:29.006Z,175.75
2024-02-19T16:44:50.889Z,338.45
2024-02-19T16:46:14.791Z,136.97
2024-02-19T16:47:37.705Z,261.45
2024-02-19T16:48:59.971Z,182.80
2024-02-19T16:50:23.668Z,64.97
2024-02-19T16:51:46.036Z,71.80
2024-02-19T16:53:09.063Z,49.55
2024-02-19T16:54:31.626Z,38.02
2024-02-19T16:55:54.442Z,65.83
2024-02-19T16:57:16.926Z,51.62
2024-02-19T16:58:38.692Z,43.38
2024-02-19T17:00:00.845Z,52.33
2024-02-19T17:01:23.723Z,35.23
2024-02-19T17:02:46.544Z,33.50
2024-02-19T17:04:10.098Z,29.05
2024-02-19T17:05:33.859Z,40.53
2024-02-19T17:06:56.736Z,48.87
2024-02-19T17:08:19.394Z,119.55
2024-02-19T17:09:43.792Z,32.25
2024-02-19T17:11:06.013Z,71.60
2024-02-19T17:12:31.913Z,34.97
2024-02-19T17:13:55.210Z,55.60
2024-02-19T17:15:17.480Z,30.62
2024-02-19T17:16:40.056Z,41.28
2024-02-19T17:18:04.241Z,57.83
2024-02-19T17:19:28.516Z,74.73
2024-02-19T17:20:51.012Z,162.18
2024-02-19T17:22:15.115Z,45.40
2024-02-19T17:23:38.309Z,33.62
2024-02-19T17:25:00.812Z,30.53
2024-02-19T17:26:23.811Z,62.60
2024-02-19T17:27:46.829Z,32.73
2024-02-19T17:29:09.853Z,43.67
2024-02-19T17:30:31.846Z,32.35
2024-02-19T17:31:54.383Z,33.12
2024-02-19T17:33:17.169Z,30.55
2024-02-19T17:34:44.199Z,33.33
2024-02-19T17:36:06.990Z,32.10
2024-02-19T17:37:31.032Z,35.05
2024-02-19T17:38:54.378Z,38.75
2024-02-19T17:40:16.924Z,76.42
2024-02-19T17:41:38.396Z,71.78
2024-02-19T17:43:01.277Z,45.27
2024-02-19T17:44:26.176Z,31.68
2024-02-19T17:45:49.790Z,30.77
2024-02-19T17:47:10.776Z,34.52
2024-02-19T17:48:31.576Z,34.52
2024-02-19T17:49:56.244Z,30.03
2024-02-19T17:51:23.616Z,36.08
2024-02-19T17:52:48.114Z,39.73
2024-02-19T17:54:12.321Z,41.60
2024-02-19T17:55:57.824Z,34.02
2024-02-19T17:57:21.717Z,46.07
2024-02-19T17:58:57.417Z,32.90
2024-02-19T18:00:20.490Z,44.57
2024-02-19T18:01:45.638Z,112.02
2024-02-19T18:03:07.319Z,110.62
2024-02-19T18:04:28.885Z,114.68
2024-02-19T18:05:51.957Z,125.10
2024-02-19T18:07:13.304Z,175.85
2024-02-19T18:08:38.515Z,114.12
2024-02-19T18:10:05.919Z,161.43
2024-02-19T18:11:33.961Z,181.27
2024-02-19T18:12:56.485Z,105.57
2024-02-19T18:14:19.116Z,41.37
2024-02-19T18:15:42.054Z,74.67
2024-02-19T18:17:03.281Z,42.62
2024-02-19T18:18:26.150Z,45.85
2024-02-19T18:19:49.585Z,53.33
2024-02-19T18:21:12.080Z,68.08
2024-02-19T18:22:35.417Z,53.68
2024-02-19T18:23:59.628Z,65.32
2024-02-19T18:25:21.817Z,34.83
2024-02-19T18:26:43.443Z,47.72
2024-02-19T18:28:07.184Z,75.72
2024-02-19T18:29:35.393Z,45.53
2024-02-19T18:30:58.247Z,68.73
2024-02-19T18:32:22.133Z,78.80
2024-02-19T18:33:45.656Z,95.57
2024-02-19T18:35:09.097Z,62.97
2024-02-19T18:36:31.241Z,89.32
2024-02-19T18:37:55.268Z,96.30
2024-02-19T18:39:16.720Z,97.07
2024-02-19T18:40:40.288Z,129.42
2024-02-19T18:42:02.690Z,89.22
2024-02-19T18:43:27.209Z,139.60
2024-02-19T18:44:51.131Z,140.52
2024-02-19T18:46:12.879Z,82.08
2024-02-19T18:47:36.084Z,69.43
2024-02-19T18:48:59.940Z,105.93
2024-02-19T18:50:23.075Z,126.30
2024-02-19T18:51:48.046Z,118.53
2024-02-19T18:53:10.886Z,59.30
2024-02-19T18:54:38.103Z,82.85
2024-02-19T18:56:02.947Z,189.38
2024-02-19T18:57:26.334Z,95.03
2024-02-19T18:58:51.453Z,80.87
2024-02-19T19:00:18.414Z,137.63
2024-02-19T19:01:41.129Z,239.82
2024-02-19T19:03:04.217Z,144.27
2024-02-19T19:04:27.016Z,275.43
2024-02-19T19:05:49.605Z,151.75
2024-02-19T19:07:11.887Z,99.33
2024-02-19T19:08:34.729Z,56.53
2024-02-19T19:09:59.743Z,82.13
2024-02-19T19:11:23.938Z,175.47
2024-02-19T19:12:47.716Z,120.68
2024-02-19T19:14:12.734Z,92.03
2024-02-19T19:15:43.333Z,150.92
2024-02-19T19:17:12.348Z,113.28
2024-02-19T19:18:35.599Z,141.15
2024-02-19T19:19:57.692Z,135.00
2024-02-19T19:21:23.369Z,105.68
2024-02-19T19:22:49.338Z,147.32
2024-02-19T19:24:11.254Z,153.67
2024-02-19T19:25:34.387Z,128.65
2024-02-19T19:26:56.895Z,179.20
2024-02-19T19:28:19.764Z,92.13
2024-02-19T19:29:42.553Z,168.78
2024-02-19T19:31:06.505Z,103.60
2024-02-19T19:32:30.842Z,142.45
2024-02-19T19:33:54.714Z,136.83
2024-02-19T19:35:18.504Z,109.07
2024-02-19T19:36:46.458Z,199.28
2024-02-19T19:38:08.266Z,171.98
2024-02-19T19:39:29.397Z,158.23
2024-02-19T19:40:51.806Z,81.02
2024-02-19T19:42:15.296Z,104.47
2024-02-19T19:43:41.147Z,164.58
2024-02-19T19:45:05.360Z,148.18
2024-02-19T19:46:30.643Z,158.43
2024-02-19T19:47:54.516Z,192.18
2024-02-19T19:49:21.798Z,116.23